sensor_id;sensor_type;location;lat;lon;timestamp;P1;durP1;ratioP1;P2;durP2;ratioP2
78860;SDS011;68211;45.774;15.892;2023-07-08T00:01:33;16.02;;;6.70;;
78860;SDS011;68211;45.774;15.892;2023-07-08T00:04:00;12.00;;;7.40;;
78860;SDS011;68211;45.774;15.892;2023-07-08T00:06:27;11.70;;;7.13;;
78860;SDS011;68211;45.774;15.892;2023-07-08T00:08:53;10.27;;;6.82;;
78860;SDS011;68211;45.774;15.892;2023-07-08T00:11:20;10.77;;;6.05;;
78860;SDS011;68211;45.774;15.892;2023-07-08T00:13:48;11.70;;;6.70;;
78860;SDS011;68211;45.774;15.892;2023-07-08T00:16:15;14.68;;;6.82;;
78860;SDS011;68211;45.774;15.892;2023-07-08T00:18:43;12.98;;;6.47;;
78860;SDS011;68211;45.774;15.892;2023-07-08T00:21:10;13.10;;;7.07;;
78860;SDS011;68211;45.774;15.892;2023-07-08T00:23:37;12.02;;;7.43;;
78860;SDS011;68211;45.774;15.892;2023-07-08T00:26:04;10.75;;;6.72;;
78860;SDS011;68211;45.774;15.892;2023-07-08T00:28:34;12.57;;;7.75;;
78860;SDS011;68211;45.774;15.892;2023-07-08T00:31:04;16.13;;;6.28;;
78860;SDS011;68211;45.774;15.892;2023-07-08T00:33:30;14.68;;;6.80;;
78860;SDS011;68211;45.774;15.892;2023-07-08T00:35:57;12.82;;;6.93;;
78860;SDS011;68211;45.774;15.892;2023-07-08T00:38:24;11.02;;;6.22;;
78860;SDS011;68211;45.774;15.892;2023-07-08T00:40:51;11.30;;;6.78;;
78860;SDS011;68211;45.774;15.892;2023-07-08T00:43:19;11.20;;;7.07;;
78860;SDS011;68211;45.774;15.892;2023-07-08T00:45:48;9.23;;;6.63;;
78860;SDS011;68211;45.774;15.892;2023-07-08T00:48:30;16.33;;;6.95;;
78860;SDS011;68211;45.774;15.892;2023-07-08T00:50:59;13.00;;;6.82;;
78860;SDS011;68211;45.774;15.892;2023-07-08T00:53:27;14.23;;;6.53;;
78860;SDS011;68211;45.774;15.892;2023-07-08T00:55:54;12.88;;;6.30;;
78860;SDS011;68211;45.774;15.892;2023-07-08T00:58:21;14.10;;;7.10;;
78860;SDS011;68211;45.774;15.892;2023-07-08T01:00:49;15.77;;;6.72;;
78860;SDS011;68211;45.774;15.892;2023-07-08T01:03:15;14.68;;;6.75;;
78860;SDS011;68211;45.774;15.892;2023-07-08T01:05:44;14.05;;;7.18;;
78860;SDS011;68211;45.774;15.892;2023-07-08T01:08:11;12.15;;;7.22;;
78860;SDS011;68211;45.774;15.892;2023-07-08T01:10:39;10.52;;;6.57;;
78860;SDS011;68211;45.774;15.892;2023-07-08T01:13:05;17.00;;;6.85;;
78860;SDS011;68211;45.774;15.892;2023-07-08T01:15:35;13.35;;;6.75;;
78860;SDS011;68211;45.774;15.892;2023-07-08T01:20:29;17.52;;;6.88;;
78860;SDS011;68211;45.774;15.892;2023-07-08T01:22:57;12.75;;;6.95;;
78860;SDS011;68211;45.774;15.892;2023-07-08T01:25:24;17.90;;;7.70;;
78860;SDS011;68211;45.774;15.892;2023-07-08T01:27:52;13.82;;;7.30;;
78860;SDS011;68211;45.774;15.892;2023-07-08T01:30:19;9.95;;;6.32;;
78860;SDS011;68211;45.774;15.892;2023-07-08T01:32:47;10.73;;;6.70;;
78860;SDS011;68211;45.774;15.892;2023-07-08T01:35:14;13.82;;;6.78;;
78860;SDS011;68211;45.774;15.892;2023-07-08T01:37:42;10.90;;;6.75;;
78860;SDS011;68211;45.774;15.892;2023-07-08T01:40:19;10.95;;;6.95;;
78860;SDS011;68211;45.774;15.892;2023-07-08T01:42:48;15.32;;;6.90;;
78860;SDS011;68211;45.774;15.892;2023-07-08T01:45:16;11.93;;;7.22;;
78860;SDS011;68211;45.774;15.892;2023-07-08T01:47:44;12.20;;;6.65;;
78860;SDS011;68211;45.774;15.892;2023-07-08T01:50:12;10.55;;;6.57;;
78860;SDS011;68211;45.774;15.892;2023-07-08T01:52:39;14.90;;;7.07;;
78860;SDS011;68211;45.774;15.892;2023-07-08T01:55:06;10.68;;;7.55;;
78860;SDS011;68211;45.774;15.892;2023-07-08T01:57:34;9.98;;;6.60;;
78860;SDS011;68211;45.774;15.892;2023-07-08T02:00:00;12.52;;;6.72;;
78860;SDS011;68211;45.774;15.892;2023-07-08T02:02:27;12.20;;;7.13;;
78860;SDS011;68211;45.774;15.892;2023-07-08T02:04:53;11.18;;;6.60;;
78860;SDS011;68211;45.774;15.892;2023-07-08T02:07:21;8.68;;;6.00;;
78860;SDS011;68211;45.774;15.892;2023-07-08T02:09:48;12.13;;;6.70;;
78860;SDS011;68211;45.774;15.892;2023-07-08T02:12:14;13.35;;;6.85;;
78860;SDS011;68211;45.774;15.892;2023-07-08T02:14:42;13.82;;;7.07;;
78860;SDS011;68211;45.774;15.892;2023-07-08T02:17:09;10.90;;;6.38;;
78860;SDS011;68211;45.774;15.892;2023-07-08T02:19:35;12.10;;;6.95;;
78860;SDS011;68211;45.774;15.892;2023-07-08T02:22:02;9.68;;;6.43;;
78860;SDS011;68211;45.774;15.892;2023-07-08T02:24:28;15.10;;;7.55;;
78860;SDS011;68211;45.774;15.892;2023-07-08T02:26:54;16.88;;;7.35;;
78860;SDS011;68211;45.774;15.892;2023-07-08T02:29:21;13.93;;;6.57;;
78860;SDS011;68211;45.774;15.892;2023-07-08T02:31:49;15.05;;;7.05;;
78860;SDS011;68211;45.774;15.892;2023-07-08T02:34:15;10.13;;;6.45;;
78860;SDS011;68211;45.774;15.892;2023-07-08T02:36:42;13.93;;;7.63;;
78860;SDS011;68211;45.774;15.892;2023-07-08T02:39:08;13.75;;;6.80;;
78860;SDS011;68211;45.774;15.892;2023-07-08T02:41:35;11.23;;;6.50;;
78860;SDS011;68211;45.774;15.892;2023-07-08T02:44:01;14.85;;;6.57;;
78860;SDS011;68211;45.774;15.892;2023-07-08T02:46:28;13.30;;;7.10;;
78860;SDS011;68211;45.774;15.892;2023-07-08T02:48:56;14.55;;;7.07;;
78860;SDS011;68211;45.774;15.892;2023-07-08T02:51:22;13.80;;;6.78;;
78860;SDS011;68211;45.774;15.892;2023-07-08T02:53:49;10.93;;;6.63;;
78860;SDS011;68211;45.774;15.892;2023-07-08T02:56:15;15.88;;;6.38;;
78860;SDS011;68211;45.774;15.892;2023-07-08T02:58:41;14.88;;;7.18;;
78860;SDS011;68211;45.774;15.892;2023-07-08T03:01:09;10.50;;;6.65;;
78860;SDS011;68211;45.774;15.892;2023-07-08T03:03:36;10.50;;;6.88;;
78860;SDS011;68211;45.774;15.892;2023-07-08T03:06:04;13.55;;;7.15;;
78860;SDS011;68211;45.774;15.892;2023-07-08T03:08:30;13.02;;;6.65;;
78860;SDS011;68211;45.774;15.892;2023-07-08T03:10:58;10.60;;;6.43;;
78860;SDS011;68211;45.774;15.892;2023-07-08T03:13:25;9.45;;;6.70;;
78860;SDS011;68211;45.774;15.892;2023-07-08T03:15:52;13.02;;;6.90;;
78860;SDS011;68211;45.774;15.892;2023-07-08T03:18:18;9.68;;;6.47;;
78860;SDS011;68211;45.774;15.892;2023-07-08T03:20:45;12.90;;;6.47;;
78860;SDS011;68211;45.774;15.892;2023-07-08T03:23:14;12.20;;;7.10;;
78860;SDS011;68211;45.774;15.892;2023-07-08T03:25:41;14.98;;;6.95;;
78860;SDS011;68211;45.774;15.892;2023-07-08T03:28:07;13.98;;;6.38;;
78860;SDS011;68211;45.774;15.892;2023-07-08T03:30:34;8.32;;;6.38;;
78860;SDS011;68211;45.774;15.892;2023-07-08T03:33:00;12.43;;;7.03;;
78860;SDS011;68211;45.774;15.892;2023-07-08T03:35:27;8.10;;;6.13;;
78860;SDS011;68211;45.774;15.892;2023-07-08T03:37:53;13.73;;;6.88;;
78860;SDS011;68211;45.774;15.892;2023-07-08T03:40:21;14.65;;;6.80;;
78860;SDS011;68211;45.774;15.892;2023-07-08T03:42:48;16.02;;;6.63;;
78860;SDS011;68211;45.774;15.892;2023-07-08T03:45:14;10.63;;;6.97;;
78860;SDS011;68211;45.774;15.892;2023-07-08T03:47:40;13.32;;;6.32;;
78860;SDS011;68211;45.774;15.892;2023-07-08T03:50:09;11.98;;;6.53;;
78860;SDS011;68211;45.774;15.892;2023-07-08T03:52:39;13.27;;;6.50;;
78860;SDS011;68211;45.774;15.892;2023-07-08T03:55:06;11.05;;;6.22;;
78860;SDS011;68211;45.774;15.892;2023-07-08T03:57:34;12.73;;;6.60;;
78860;SDS011;68211;45.774;15.892;2023-07-08T04:00:00;17.90;;;6.88;;
78860;SDS011;68211;45.774;15.892;2023-07-08T04:02:27;14.68;;;6.72;;
78860;SDS011;68211;45.774;15.892;2023-07-08T04:04:53;19.70;;;7.45;;
78860;SDS011;68211;45.774;15.892;2023-07-08T04:07:20;11.35;;;6.88;;
78860;SDS011;68211;45.774;15.892;2023-07-08T04:09:46;13.02;;;7.57;;
78860;SDS011;68211;45.774;15.892;2023-07-08T04:12:13;12.45;;;7.05;;
78860;SDS011;68211;45.774;15.892;2023-07-08T04:14:41;12.90;;;6.53;;
78860;SDS011;68211;45.774;15.892;2023-07-08T04:17:07;14.43;;;6.55;;
78860;SDS011;68211;45.774;15.892;2023-07-08T04:19:34;8.75;;;6.35;;
78860;SDS011;68211;45.774;15.892;2023-07-08T04:22:00;17.23;;;6.40;;
78860;SDS011;68211;45.774;15.892;2023-07-08T04:24:28;10.40;;;6.13;;
78860;SDS011;68211;45.774;15.892;2023-07-08T04:26:55;13.77;;;6.38;;
78860;SDS011;68211;45.774;15.892;2023-07-08T04:29:22;11.90;;;6.13;;
78860;SDS011;68211;45.774;15.892;2023-07-08T04:31:50;16.13;;;6.60;;
78860;SDS011;68211;45.774;15.892;2023-07-08T04:34:16;12.55;;;6.60;;
78860;SDS011;68211;45.774;15.892;2023-07-08T04:36:43;11.30;;;6.10;;
78860;SDS011;68211;45.774;15.892;2023-07-08T04:39:09;12.68;;;6.63;;
78860;SDS011;68211;45.774;15.892;2023-07-08T04:41:36;9.50;;;6.07;;
78860;SDS011;68211;45.774;15.892;2023-07-08T04:44:03;14.10;;;6.68;;
78860;SDS011;68211;45.774;15.892;2023-07-08T04:46:31;10.57;;;6.05;;
78860;SDS011;68211;45.774;15.892;2023-07-08T04:49:01;12.52;;;6.57;;
78860;SDS011;68211;45.774;15.892;2023-07-08T04:51:27;12.00;;;6.45;;
78860;SDS011;68211;45.774;15.892;2023-07-08T04:53:54;19.48;;;7.20;;
78860;SDS011;68211;45.774;15.892;2023-07-08T04:56:20;12.15;;;6.63;;
78860;SDS011;68211;45.774;15.892;2023-07-08T04:58:47;10.25;;;6.28;;
78860;SDS011;68211;45.774;15.892;2023-07-08T05:01:13;17.70;;;6.78;;
78860;SDS011;68211;45.774;15.892;2023-07-08T05:03:39;11.55;;;6.10;;
78860;SDS011;68211;45.774;15.892;2023-07-08T05:06:07;9.93;;;6.18;;
78860;SDS011;68211;45.774;15.892;2023-07-08T05:08:34;10.43;;;6.25;;
78860;SDS011;68211;45.774;15.892;2023-07-08T05:11:00;11.43;;;5.95;;
78860;SDS011;68211;45.774;15.892;2023-07-08T05:13:27;10.80;;;6.30;;
78860;SDS011;68211;45.774;15.892;2023-07-08T05:15:54;14.52;;;6.35;;
78860;SDS011;68211;45.774;15.892;2023-07-08T05:18:20;10.75;;;6.20;;
78860;SDS011;68211;45.774;15.892;2023-07-08T05:20:49;12.63;;;6.50;;
78860;SDS011;68211;45.774;15.892;2023-07-08T05:23:17;10.77;;;6.35;;
78860;SDS011;68211;45.774;15.892;2023-07-08T05:25:44;10.98;;;6.00;;
78860;SDS011;68211;45.774;15.892;2023-07-08T05:28:10;12.13;;;6.10;;
78860;SDS011;68211;45.774;15.892;2023-07-08T05:30:39;13.55;;;6.65;;
78860;SDS011;68211;45.774;15.892;2023-07-08T05:33:05;9.90;;;6.25;;
78860;SDS011;68211;45.774;15.892;2023-07-08T05:35:32;9.38;;;5.97;;
78860;SDS011;68211;45.774;15.892;2023-07-08T05:37:59;10.82;;;6.40;;
78860;SDS011;68211;45.774;15.892;2023-07-08T05:40:27;12.52;;;7.03;;
78860;SDS011;68211;45.774;15.892;2023-07-08T05:42:53;11.35;;;6.25;;
78860;SDS011;68211;45.774;15.892;2023-07-08T05:45:19;11.85;;;7.13;;
78860;SDS011;68211;45.774;15.892;2023-07-08T05:47:46;17.05;;;7.03;;
78860;SDS011;68211;45.774;15.892;2023-07-08T05:50:12;12.15;;;6.18;;
78860;SDS011;68211;45.774;15.892;2023-07-08T05:52:39;11.20;;;6.40;;
78860;SDS011;68211;45.774;15.892;2023-07-08T05:55:06;18.27;;;6.53;;
78860;SDS011;68211;45.774;15.892;2023-07-08T05:57:33;15.50;;;6.97;;
78860;SDS011;68211;45.774;15.892;2023-07-08T06:00:00;12.95;;;6.55;;
78860;SDS011;68211;45.774;15.892;2023-07-08T06:02:26;14.52;;;6.68;;
78860;SDS011;68211;45.774;15.892;2023-07-08T06:04:53;14.13;;;6.82;;
78860;SDS011;68211;45.774;15.892;2023-07-08T06:07:20;17.10;;;7.03;;
78860;SDS011;68211;45.774;15.892;2023-07-08T06:09:47;12.52;;;6.72;;
78860;SDS011;68211;45.774;15.892;2023-07-08T06:12:14;22.50;;;6.75;;
78860;SDS011;68211;45.774;15.892;2023-07-08T06:14:43;13.52;;;7.22;;
78860;SDS011;68211;45.774;15.892;2023-07-08T06:17:10;15.15;;;6.22;;
78860;SDS011;68211;45.774;15.892;2023-07-08T06:19:37;15.30;;;7.40;;
78860;SDS011;68211;45.774;15.892;2023-07-08T06:22:04;17.98;;;6.82;;
78860;SDS011;68211;45.774;15.892;2023-07-08T06:24:50;13.63;;;6.07;;
78860;SDS011;68211;45.774;15.892;2023-07-08T06:27:17;17.15;;;7.15;;
78860;SDS011;68211;45.774;15.892;2023-07-08T06:29:44;13.10;;;6.75;;
78860;SDS011;68211;45.774;15.892;2023-07-08T06:32:11;14.98;;;6.53;;
78860;SDS011;68211;45.774;15.892;2023-07-08T06:34:37;12.77;;;6.60;;
78860;SDS011;68211;45.774;15.892;2023-07-08T06:37:04;15.30;;;6.38;;
78860;SDS011;68211;45.774;15.892;2023-07-08T06:39:31;20.58;;;7.10;;
78860;SDS011;68211;45.774;15.892;2023-07-08T06:41:58;15.63;;;6.85;;
78860;SDS011;68211;45.774;15.892;2023-07-08T06:44:24;18.05;;;6.57;;
78860;SDS011;68211;45.774;15.892;2023-07-08T06:46:54;15.55;;;6.80;;
78860;SDS011;68211;45.774;15.892;2023-07-08T06:49:21;14.57;;;6.40;;
78860;SDS011;68211;45.774;15.892;2023-07-08T06:51:47;12.40;;;6.53;;
78860;SDS011;68211;45.774;15.892;2023-07-08T06:54:14;9.98;;;6.90;;
78860;SDS011;68211;45.774;15.892;2023-07-08T06:56:41;12.80;;;6.65;;
78860;SDS011;68211;45.774;15.892;2023-07-08T06:59:10;12.70;;;6.43;;
78860;SDS011;68211;45.774;15.892;2023-07-08T07:01:37;11.07;;;6.25;;
78860;SDS011;68211;45.774;15.892;2023-07-08T07:04:06;10.77;;;6.50;;
78860;SDS011;68211;45.774;15.892;2023-07-08T07:06:33;15.93;;;7.20;;
78860;SDS011;68211;45.774;15.892;2023-07-08T07:08:59;26.23;;;8.40;;
78860;SDS011;68211;45.774;15.892;2023-07-08T07:11:26;14.65;;;7.88;;
78860;SDS011;68211;45.774;15.892;2023-07-08T07:13:52;18.60;;;7.28;;
78860;SDS011;68211;45.774;15.892;2023-07-08T07:16:20;15.23;;;7.03;;
78860;SDS011;68211;45.774;15.892;2023-07-08T07:18:49;13.23;;;7.30;;
78860;SDS011;68211;45.774;15.892;2023-07-08T07:21:20;15.27;;;7.40;;
78860;SDS011;68211;45.774;15.892;2023-07-08T07:23:47;14.73;;;7.50;;
78860;SDS011;68211;45.774;15.892;2023-07-08T07:26:17;16.30;;;6.55;;
78860;SDS011;68211;45.774;15.892;2023-07-08T07:28:50;13.23;;;6.30;;
78860;SDS011;68211;45.774;15.892;2023-07-08T07:31:16;16.52;;;6.97;;
78860;SDS011;68211;45.774;15.892;2023-07-08T07:33:42;14.82;;;6.93;;
78860;SDS011;68211;45.774;15.892;2023-07-08T07:36:09;12.23;;;7.22;;
78860;SDS011;68211;45.774;15.892;2023-07-08T07:38:37;16.30;;;6.72;;
78860;SDS011;68211;45.774;15.892;2023-07-08T07:41:03;15.38;;;6.93;;
78860;SDS011;68211;45.774;15.892;2023-07-08T07:43:30;17.23;;;6.70;;
78860;SDS011;68211;45.774;15.892;2023-07-08T07:45:56;13.93;;;7.53;;
78860;SDS011;68211;45.774;15.892;2023-07-08T07:48:23;16.95;;;6.43;;
78860;SDS011;68211;45.774;15.892;2023-07-08T07:50:50;14.68;;;6.72;;
78860;SDS011;68211;45.774;15.892;2023-07-08T07:53:17;13.10;;;6.20;;
78860;SDS011;68211;45.774;15.892;2023-07-08T07:55:45;24.27;;;7.25;;
78860;SDS011;68211;45.774;15.892;2023-07-08T07:58:11;14.25;;;6.85;;
78860;SDS011;68211;45.774;15.892;2023-07-08T08:00:38;20.38;;;7.43;;
78860;SDS011;68211;45.774;15.892;2023-07-08T08:03:04;15.88;;;7.70;;
78860;SDS011;68211;45.774;15.892;2023-07-08T08:05:31;11.30;;;6.93;;
78860;SDS011;68211;45.774;15.892;2023-07-08T08:07:58;15.75;;;7.22;;
78860;SDS011;68211;45.774;15.892;2023-07-08T08:10:24;14.50;;;6.22;;
78860;SDS011;68211;45.774;15.892;2023-07-08T08:12:52;19.98;;;6.50;;
78860;SDS011;68211;45.774;15.892;2023-07-08T08:15:20;15.73;;;6.85;;
78860;SDS011;68211;45.774;15.892;2023-07-08T08:17:46;11.80;;;7.03;;
78860;SDS011;68211;45.774;15.892;2023-07-08T08:20:13;13.35;;;6.70;;
78860;SDS011;68211;45.774;15.892;2023-07-08T08:22:39;16.48;;;6.82;;
78860;SDS011;68211;45.774;15.892;2023-07-08T08:25:06;18.50;;;6.72;;
78860;SDS011;68211;45.774;15.892;2023-07-08T08:27:33;9.93;;;6.45;;
78860;SDS011;68211;45.774;15.892;2023-07-08T08:30:01;12.57;;;6.68;;
78860;SDS011;68211;45.774;15.892;2023-07-08T08:32:27;22.13;;;7.40;;
78860;SDS011;68211;45.774;15.892;2023-07-08T08:34:54;13.85;;;6.82;;
78860;SDS011;68211;45.774;15.892;2023-07-08T08:37:20;15.70;;;7.20;;
78860;SDS011;68211;45.774;15.892;2023-07-08T08:39:46;15.00;;;7.25;;
78860;SDS011;68211;45.774;15.892;2023-07-08T08:42:15;23.58;;;7.30;;
78860;SDS011;68211;45.774;15.892;2023-07-08T08:44:43;11.07;;;6.53;;
78860;SDS011;68211;45.774;15.892;2023-07-08T08:47:12;11.85;;;6.95;;
78860;SDS011;68211;45.774;15.892;2023-07-08T08:49:47;21.17;;;7.03;;
78860;SDS011;68211;45.774;15.892;2023-07-08T08:52:17;13.38;;;8.05;;
78860;SDS011;68211;45.774;15.892;2023-07-08T08:54:43;14.18;;;7.72;;
78860;SDS011;68211;45.774;15.892;2023-07-08T08:57:12;12.27;;;6.63;;
78860;SDS011;68211;45.774;15.892;2023-07-08T08:59:42;16.33;;;7.55;;
78860;SDS011;68211;45.774;15.892;2023-07-08T09:02:18;9.97;;;6.57;;
78860;SDS011;68211;45.774;15.892;2023-07-08T09:04:49;9.52;;;6.97;;
78860;SDS011;68211;45.774;15.892;2023-07-08T09:07:16;11.25;;;6.70;;
78860;SDS011;68211;45.774;15.892;2023-07-08T09:09:45;8.73;;;5.78;;
78860;SDS011;68211;45.774;15.892;2023-07-08T09:12:14;10.82;;;5.95;;
78860;SDS011;68211;45.774;15.892;2023-07-08T09:14:44;11.68;;;6.28;;
78860;SDS011;68211;45.774;15.892;2023-07-08T09:17:22;9.32;;;5.68;;
78860;SDS011;68211;45.774;15.892;2023-07-08T09:19:50;10.52;;;6.07;;
78860;SDS011;68211;45.774;15.892;2023-07-08T09:22:20;9.40;;;5.78;;
78860;SDS011;68211;45.774;15.892;2023-07-08T09:24:48;10.75;;;6.35;;
78860;SDS011;68211;45.774;15.892;2023-07-08T09:27:15;9.00;;;6.15;;
78860;SDS011;68211;45.774;15.892;2023-07-08T09:29:42;13.90;;;6.65;;
78860;SDS011;68211;45.774;15.892;2023-07-08T09:32:15;12.13;;;6.43;;
78860;SDS011;68211;45.774;15.892;2023-07-08T09:34:43;12.38;;;6.47;;
78860;SDS011;68211;45.774;15.892;2023-07-08T09:37:21;15.30;;;6.22;;
78860;SDS011;68211;45.774;15.892;2023-07-08T09:39:47;7.85;;;5.72;;
78860;SDS011;68211;45.774;15.892;2023-07-08T09:42:14;12.55;;;5.70;;
78860;SDS011;68211;45.774;15.892;2023-07-08T09:44:43;11.15;;;5.72;;
78860;SDS011;68211;45.774;15.892;2023-07-08T09:47:19;13.05;;;6.60;;
78860;SDS011;68211;45.774;15.892;2023-07-08T09:49:46;13.60;;;5.90;;
78860;SDS011;68211;45.774;15.892;2023-07-08T09:52:13;10.00;;;6.32;;
78860;SDS011;68211;45.774;15.892;2023-07-08T09:54:40;10.70;;;5.47;;
78860;SDS011;68211;45.774;15.892;2023-07-08T09:57:09;10.43;;;5.57;;
78860;SDS011;68211;45.774;15.892;2023-07-08T09:59:38;11.57;;;5.53;;
78860;SDS011;68211;45.774;15.892;2023-07-08T10:02:17;9.80;;;5.57;;
78860;SDS011;68211;45.774;15.892;2023-07-08T10:04:53;9.40;;;5.72;;
78860;SDS011;68211;45.774;15.892;2023-07-08T10:07:20;11.70;;;5.60;;
78860;SDS011;68211;45.774;15.892;2023-07-08T10:09:46;12.38;;;6.18;;
78860;SDS011;68211;45.774;15.892;2023-07-08T10:12:13;10.25;;;5.00;;
78860;SDS011;68211;45.774;15.892;2023-07-08T10:14:41;6.60;;;5.03;;
78860;SDS011;68211;45.774;15.892;2023-07-08T10:17:11;10.95;;;5.50;;
78860;SDS011;68211;45.774;15.892;2023-07-08T10:19:39;6.78;;;5.35;;
78860;SDS011;68211;45.774;15.892;2023-07-08T10:22:15;10.15;;;5.78;;
78860;SDS011;68211;45.774;15.892;2023-07-08T10:24:46;11.20;;;5.18;;
78860;SDS011;68211;45.774;15.892;2023-07-08T10:27:18;11.25;;;5.22;;
78860;SDS011;68211;45.774;15.892;2023-07-08T10:29:50;11.50;;;5.03;;
78860;SDS011;68211;45.774;15.892;2023-07-08T10:32:22;12.00;;;5.10;;
78860;SDS011;68211;45.774;15.892;2023-07-08T10:34:53;17.42;;;4.72;;
78860;SDS011;68211;45.774;15.892;2023-07-08T10:37:25;7.82;;;4.68;;
78860;SDS011;68211;45.774;15.892;2023-07-08T10:39:55;10.00;;;5.18;;
78860;SDS011;68211;45.774;15.892;2023-07-08T10:42:32;7.93;;;4.72;;
78860;SDS011;68211;45.774;15.892;2023-07-08T10:45:07;10.40;;;4.95;;
78860;SDS011;68211;45.774;15.892;2023-07-08T10:47:40;7.70;;;5.18;;
78860;SDS011;68211;45.774;15.892;2023-07-08T10:50:14;11.23;;;4.55;;
78860;SDS011;68211;45.774;15.892;2023-07-08T10:52:48;8.05;;;4.43;;
78860;SDS011;68211;45.774;15.892;2023-07-08T10:55:25;10.63;;;4.60;;
78860;SDS011;68211;45.774;15.892;2023-07-08T10:58:01;7.30;;;4.50;;
78860;SDS011;68211;45.774;15.892;2023-07-08T11:00:33;12.00;;;5.07;;
78860;SDS011;68211;45.774;15.892;2023-07-08T11:03:06;8.32;;;4.20;;
78860;SDS011;68211;45.774;15.892;2023-07-08T11:05:37;7.00;;;4.70;;
78860;SDS011;68211;45.774;15.892;2023-07-08T11:08:10;6.10;;;4.25;;
78860;SDS011;68211;45.774;15.892;2023-07-08T11:10:40;8.98;;;4.38;;
78860;SDS011;68211;45.774;15.892;2023-07-08T11:13:10;8.57;;;4.88;;
78860;SDS011;68211;45.774;15.892;2023-07-08T11:15:40;6.43;;;4.82;;
78860;SDS011;68211;45.774;15.892;2023-07-08T11:18:10;14.60;;;4.68;;
78860;SDS011;68211;45.774;15.892;2023-07-08T11:20:39;8.02;;;4.32;;
78860;SDS011;68211;45.774;15.892;2023-07-08T11:23:08;7.23;;;3.77;;
78860;SDS011;68211;45.774;15.892;2023-07-08T11:25:37;5.80;;;3.83;;
78860;SDS011;68211;45.774;15.892;2023-07-08T11:28:10;5.13;;;3.90;;
78860;SDS011;68211;45.774;15.892;2023-07-08T11:30:38;7.05;;;4.10;;
78860;SDS011;68211;45.774;15.892;2023-07-08T11:33:06;9.52;;;4.70;;
78860;SDS011;68211;45.774;15.892;2023-07-08T11:35:36;5.80;;;4.13;;
78860;SDS011;68211;45.774;15.892;2023-07-08T11:38:04;6.47;;;4.25;;
78860;SDS011;68211;45.774;15.892;2023-07-08T11:40:30;6.03;;;4.30;;
78860;SDS011;68211;45.774;15.892;2023-07-08T11:43:01;8.95;;;4.30;;
78860;SDS011;68211;45.774;15.892;2023-07-08T11:45:30;6.88;;;4.45;;
78860;SDS011;68211;45.774;15.892;2023-07-08T11:48:03;5.95;;;4.35;;
78860;SDS011;68211;45.774;15.892;2023-07-08T11:50:31;10.00;;;4.30;;
78860;SDS011;68211;45.774;15.892;2023-07-08T11:52:58;7.00;;;4.10;;
78860;SDS011;68211;45.774;15.892;2023-07-08T11:55:26;11.30;;;4.22;;
78860;SDS011;68211;45.774;15.892;2023-07-08T11:57:56;9.77;;;4.50;;
78860;SDS011;68211;45.774;15.892;2023-07-08T12:00:25;8.13;;;3.83;;
78860;SDS011;68211;45.774;15.892;2023-07-08T12:02:53;10.18;;;4.55;;
78860;SDS011;68211;45.774;15.892;2023-07-08T12:05:30;5.38;;;4.47;;
78860;SDS011;68211;45.774;15.892;2023-07-08T12:07:57;7.10;;;4.15;;
78860;SDS011;68211;45.774;15.892;2023-07-08T12:10:25;8.40;;;4.13;;
78860;SDS011;68211;45.774;15.892;2023-07-08T12:12:52;4.57;;;3.88;;
78860;SDS011;68211;45.774;15.892;2023-07-08T12:15:21;5.47;;;3.95;;
78860;SDS011;68211;45.774;15.892;2023-07-08T12:17:49;5.38;;;4.10;;
78860;SDS011;68211;45.774;15.892;2023-07-08T12:20:18;7.55;;;4.22;;
78860;SDS011;68211;45.774;15.892;2023-07-08T12:22:46;6.60;;;4.38;;
78860;SDS011;68211;45.774;15.892;2023-07-08T12:25:13;9.57;;;4.10;;
78860;SDS011;68211;45.774;15.892;2023-07-08T12:27:39;9.82;;;4.32;;
78860;SDS011;68211;45.774;15.892;2023-07-08T12:30:07;8.20;;;4.35;;
78860;SDS011;68211;45.774;15.892;2023-07-08T12:32:37;20.55;;;4.03;;
78860;SDS011;68211;45.774;15.892;2023-07-08T12:35:05;10.57;;;4.25;;
78860;SDS011;68211;45.774;15.892;2023-07-08T12:37:40;6.80;;;4.00;;
78860;SDS011;68211;45.774;15.892;2023-07-08T12:40:08;6.22;;;4.35;;
78860;SDS011;68211;45.774;15.892;2023-07-08T12:42:36;5.05;;;3.92;;
78860;SDS011;68211;45.774;15.892;2023-07-08T12:45:04;7.32;;;4.53;;
78860;SDS011;68211;45.774;15.892;2023-07-08T12:47:38;7.65;;;3.95;;
78860;SDS011;68211;45.774;15.892;2023-07-08T12:50:07;5.30;;;4.10;;
78860;SDS011;68211;45.774;15.892;2023-07-08T12:52:34;5.20;;;4.15;;
78860;SDS011;68211;45.774;15.892;2023-07-08T12:55:00;11.85;;;4.47;;
78860;SDS011;68211;45.774;15.892;2023-07-08T12:57:27;5.53;;;4.07;;
78860;SDS011;68211;45.774;15.892;2023-07-08T12:59:53;8.55;;;4.57;;
78860;SDS011;68211;45.774;15.892;2023-07-08T13:02:20;16.30;;;4.13;;
78860;SDS011;68211;45.774;15.892;2023-07-08T13:04:49;8.88;;;4.40;;
78860;SDS011;68211;45.774;15.892;2023-07-08T13:07:20;5.97;;;4.22;;
78860;SDS011;68211;45.774;15.892;2023-07-08T13:09:51;14.50;;;4.72;;
78860;SDS011;68211;45.774;15.892;2023-07-08T13:12:18;10.55;;;4.80;;
78860;SDS011;68211;45.774;15.892;2023-07-08T13:14:46;12.32;;;4.15;;
78860;SDS011;68211;45.774;15.892;2023-07-08T13:17:13;7.30;;;4.50;;
78860;SDS011;68211;45.774;15.892;2023-07-08T13:19:40;7.32;;;3.97;;
78860;SDS011;68211;45.774;15.892;2023-07-08T13:22:08;5.18;;;4.38;;
78860;SDS011;68211;45.774;15.892;2023-07-08T13:24:38;4.75;;;3.78;;
78860;SDS011;68211;45.774;15.892;2023-07-08T13:27:04;6.55;;;4.30;;
78860;SDS011;68211;45.774;15.892;2023-07-08T13:32:04;4.70;;;3.75;;
78860;SDS011;68211;45.774;15.892;2023-07-08T13:34:32;5.05;;;4.05;;
78860;SDS011;68211;45.774;15.892;2023-07-08T13:36:58;6.70;;;4.15;;
78860;SDS011;68211;45.774;15.892;2023-07-08T13:39:26;10.05;;;4.38;;
78860;SDS011;68211;45.774;15.892;2023-07-08T13:41:54;5.00;;;4.20;;
78860;SDS011;68211;45.774;15.892;2023-07-08T13:44:21;5.23;;;4.03;;
78860;SDS011;68211;45.774;15.892;2023-07-08T13:46:51;5.30;;;4.30;;
78860;SDS011;68211;45.774;15.892;2023-07-08T13:49:19;5.50;;;4.07;;
78860;SDS011;68211;45.774;15.892;2023-07-08T13:51:48;8.70;;;4.13;;
78860;SDS011;68211;45.774;15.892;2023-07-08T13:54:18;6.10;;;4.30;;
78860;SDS011;68211;45.774;15.892;2023-07-08T13:56:46;5.55;;;4.07;;
78860;SDS011;68211;45.774;15.892;2023-07-08T13:59:17;9.23;;;4.13;;
78860;SDS011;68211;45.774;15.892;2023-07-08T14:01:44;6.45;;;4.40;;
78860;SDS011;68211;45.774;15.892;2023-07-08T14:04:12;4.50;;;3.72;;
78860;SDS011;68211;45.774;15.892;2023-07-08T14:06:39;4.50;;;3.77;;
78860;SDS011;68211;45.774;15.892;2023-07-08T14:09:09;5.63;;;3.97;;
78860;SDS011;68211;45.774;15.892;2023-07-08T14:11:36;4.38;;;3.78;;
78860;SDS011;68211;45.774;15.892;2023-07-08T14:14:02;7.35;;;4.22;;
78860;SDS011;68211;45.774;15.892;2023-07-08T14:16:31;13.05;;;4.38;;
78860;SDS011;68211;45.774;15.892;2023-07-08T14:18:59;6.35;;;4.13;;
78860;SDS011;68211;45.774;15.892;2023-07-08T14:21:26;4.28;;;3.88;;
78860;SDS011;68211;45.774;15.892;2023-07-08T14:23:53;7.10;;;4.32;;
78860;SDS011;68211;45.774;15.892;2023-07-08T14:26:19;7.20;;;4.00;;
78860;SDS011;68211;45.774;15.892;2023-07-08T14:28:46;6.30;;;4.43;;
78860;SDS011;68211;45.774;15.892;2023-07-08T14:31:20;4.82;;;4.32;;
78860;SDS011;68211;45.774;15.892;2023-07-08T14:33:48;6.65;;;3.85;;
78860;SDS011;68211;45.774;15.892;2023-07-08T14:36:15;4.13;;;3.63;;